createdAt,value
2023-01-12T00:00:24.515Z,1004.03
2023-01-12T00:01:24.400Z,1003.96
2023-01-12T00:02:24.445Z,1003.89
2023-01-12T00:03:24.351Z,1004.05
2023-01-12T00:04:24.373Z,1003.96
2023-01-12T00:05:24.298Z,1003.89
2023-01-12T00:06:24.276Z,1004.01
2023-01-12T00:07:24.242Z,1003.99
2023-01-12T00:08:24.251Z,1003.95
2023-01-12T00:09:24.215Z,1003.94
2023-01-12T00:10:24.164Z,1003.97
2023-01-12T00:11:24.470Z,1004.00
2023-01-12T00:12:24.113Z,1004.02
2023-01-12T00:13:24.090Z,1003.94
2023-01-12T00:14:24.069Z,1003.90
2023-01-12T00:15:24.027Z,1003.89
2023-01-12T00:16:26.090Z,1003.94
2023-01-12T00:17:23.980Z,1004.00
2023-01-12T00:18:23.959Z,1003.95
2023-01-12T00:19:23.928Z,1003.94
2023-01-12T00:20:23.914Z,1003.93
2023-01-12T00:21:23.873Z,1003.85
2023-01-12T00:22:23.860Z,1003.89
2023-01-12T00:23:23.821Z,1003.92
2023-01-12T00:24:23.828Z,1003.90
2023-01-12T00:25:23.772Z,1003.91
2023-01-12T00:26:23.746Z,1003.86
2023-01-12T00:27:23.724Z,1003.88
2023-01-12T00:28:23.697Z,1003.91
2023-01-12T00:29:23.668Z,1003.94
2023-01-12T00:30:23.649Z,1004.05
2023-01-12T00:31:23.678Z,1003.93
2023-01-12T00:32:23.591Z,1003.89
2023-01-12T00:33:23.569Z,1003.88
2023-01-12T00:34:23.537Z,1003.86
2023-01-12T00:35:23.508Z,1003.78
2023-01-12T00:36:23.498Z,1003.74
2023-01-12T00:37:23.460Z,1003.73
2023-01-12T00:38:23.434Z,1003.67
2023-01-12T00:39:23.415Z,1003.69
2023-01-12T00:40:23.401Z,1003.95
2023-01-12T00:41:23.353Z,1003.90
2023-01-12T00:42:23.330Z,1003.95
2023-01-12T00:43:23.302Z,1003.70
2023-01-12T00:44:23.277Z,1003.79
2023-01-12T00:45:23.332Z,1003.72
2023-01-12T00:46:23.256Z,1003.74
2023-01-12T00:47:23.205Z,1003.73
2023-01-12T00:48:23.168Z,1003.84
2023-01-12T00:49:23.142Z,1003.95
2023-01-12T00:50:23.136Z,1003.97
2023-01-12T00:51:23.097Z,1003.96
2023-01-12T00:52:30.784Z,1003.91
2023-01-12T00:53:23.040Z,1003.92
2023-01-12T00:54:23.020Z,1003.92
2023-01-12T00:55:22.991Z,1003.87
2023-01-12T00:56:22.992Z,1003.86
2023-01-12T00:57:22.935Z,1003.81
2023-01-12T00:58:22.914Z,1003.89
2023-01-12T00:59:22.889Z,1003.81
2023-01-12T01:00:22.861Z,1003.82
2023-01-12T01:01:22.962Z,1003.83
2023-01-12T01:02:22.925Z,1003.78
2023-01-12T01:03:22.779Z,1003.75
2023-01-12T01:04:22.761Z,1003.79
2023-01-12T01:05:22.739Z,1003.79
2023-01-12T01:06:22.706Z,1003.78
2023-01-12T01:07:22.674Z,1003.77
2023-01-12T01:08:22.651Z,1003.75
2023-01-12T01:09:22.625Z,1003.80
2023-01-12T01:10:22.598Z,1003.74
2023-01-12T01:11:22.575Z,1003.76
2023-01-12T01:12:22.572Z,1003.79
2023-01-12T01:13:22.524Z,1003.82
2023-01-12T01:14:22.495Z,1003.78
2023-01-12T01:15:22.477Z,1003.86
2023-01-12T01:16:22.555Z,1003.82
2023-01-12T01:17:22.421Z,1003.82
2023-01-12T01:18:22.392Z,1003.79
2023-01-12T01:19:22.359Z,1003.87
2023-01-12T01:20:22.341Z,1003.78
2023-01-12T01:21:22.310Z,1003.84
2023-01-12T01:22:22.292Z,1003.82
2023-01-12T01:23:22.260Z,1003.81
2023-01-12T01:24:22.564Z,1003.81
2023-01-12T01:25:22.211Z,1003.77
2023-01-12T01:26:22.212Z,1003.81
2023-01-12T01:27:22.160Z,1003.84
2023-01-12T01:28:22.150Z,1003.73
2023-01-12T01:29:22.107Z,1003.79
2023-01-12T01:30:22.084Z,1003.71
2023-01-12T01:31:22.116Z,1003.80
2023-01-12T01:32:22.026Z,1003.74
2023-01-12T01:33:22.000Z,1003.71
2023-01-12T01:34:21.974Z,1003.70
2023-01-12T01:35:21.948Z,1003.67
2023-01-12T01:36:21.930Z,1003.65
2023-01-12T01:37:21.893Z,1003.64
2023-01-12T01:38:21.874Z,1003.65
2023-01-12T01:39:21.849Z,1003.70
2023-01-12T01:40:21.820Z,1003.69
2023-01-12T01:41:21.790Z,1003.69
2023-01-12T01:42:21.765Z,1003.70
2023-01-12T01:43:21.739Z,1003.66
2023-01-12T01:44:21.734Z,1003.63
2023-01-12T01:45:21.704Z,1003.60
2023-01-12T01:46:21.706Z,1003.54
2023-01-12T01:47:21.642Z,1003.60
2023-01-12T01:48:21.610Z,1003.64
2023-01-12T01:49:21.600Z,1003.59
2023-01-12T01:50:21.563Z,1003.54
2023-01-12T01:51:21.528Z,1003.53
2023-01-12T01:52:21.503Z,1003.59
2023-01-12T01:53:21.478Z,1003.50
2023-01-12T01:54:21.452Z,1003.57
2023-01-12T01:55:21.427Z,1003.61
2023-01-12T01:56:21.403Z,1003.55
2023-01-12T01:57:21.377Z,1003.53
2023-01-12T01:58:21.355Z,1003.56
2023-01-12T01:59:21.325Z,1003.54
2023-01-12T02:00:21.316Z,1003.44
2023-01-12T02:01:21.525Z,1003.40
2023-01-12T02:02:21.267Z,1003.48
2023-01-12T02:03:21.216Z,1003.32
2023-01-12T02:04:21.191Z,1003.50
2023-01-12T02:05:21.173Z,1003.42
2023-01-12T02:06:21.146Z,1003.37
2023-01-12T02:07:21.112Z,1003.34
2023-01-12T02:08:21.124Z,1003.33
2023-01-12T02:09:21.056Z,1003.36
2023-01-12T02:10:21.040Z,1003.31
2023-01-12T02:11:21.005Z,1003.25
2023-01-12T02:12:20.987Z,1003.21
2023-01-12T02:13:20.953Z,1003.19
2023-01-12T02:14:20.935Z,1003.28
2023-01-12T02:15:20.904Z,1003.17
2023-01-12T02:16:21.069Z,1003.22
2023-01-12T02:17:20.864Z,1003.16
2023-01-12T02:18:20.825Z,1003.15
2023-01-12T02:19:20.795Z,1003.19
2023-01-12T02:20:20.778Z,1003.20
2023-01-12T02:21:20.753Z,1003.23
2023-01-12T02:22:20.727Z,1003.14
2023-01-12T02:23:20.695Z,1003.19
2023-01-12T02:24:20.673Z,1003.10
2023-01-12T02:25:20.648Z,1003.09
2023-01-12T02:26:20.614Z,1003.03
2023-01-12T02:27:20.589Z,1003.04
2023-01-12T02:28:20.576Z,1003.13
2023-01-12T02:29:20.545Z,1003.09
2023-01-12T02:30:20.540Z,1003.05
2023-01-12T02:31:20.531Z,1003.03
2023-01-12T02:32:20.486Z,1002.98
2023-01-12T02:33:20.435Z,1002.99
2023-01-12T02:34:20.411Z,1003.02
2023-01-12T02:35:20.392Z,1002.92
2023-01-12T02:36:20.370Z,1002.99
2023-01-12T02:37:20.342Z,1002.98
2023-01-12T02:38:20.306Z,1003.01
2023-01-12T02:39:20.280Z,1002.99
2023-01-12T02:40:20.253Z,1003.00
2023-01-12T02:41:20.226Z,1002.98
2023-01-12T02:42:20.239Z,1002.97
2023-01-12T02:43:20.175Z,1002.94
2023-01-12T02:44:20.149Z,1002.87
2023-01-12T02:45:20.124Z,1002.94
2023-01-12T02:46:20.145Z,1002.89
2023-01-12T02:47:20.071Z,1002.91
2023-01-12T02:48:20.081Z,1002.86
2023-01-12T02:49:20.021Z,1002.85
2023-01-12T02:50:20.001Z,1002.83
2023-01-12T02:51:19.974Z,1002.88
2023-01-12T02:52:19.943Z,1002.86
2023-01-12T02:53:19.920Z,1002.82
2023-01-12T02:54:19.898Z,1002.80
2023-01-12T02:55:19.863Z,1002.85
2023-01-12T02:56:19.847Z,1002.77
2023-01-12T02:57:19.812Z,1002.79
2023-01-12T02:58:19.789Z,1002.73
2023-01-12T02:59:19.769Z,1002.82
2023-01-12T03:00:19.740Z,1002.75
2023-01-12T03:01:19.790Z,1002.74
2023-01-12T03:02:19.695Z,1002.67
2023-01-12T03:03:19.722Z,1002.66
2023-01-12T03:04:19.818Z,1002.64
2023-01-12T03:05:19.610Z,1002.66
2023-01-12T03:06:19.586Z,1002.68
2023-01-12T03:07:19.554Z,1002.60
2023-01-12T03:08:19.531Z,1002.68
2023-01-12T03:09:19.511Z,1002.69
2023-01-12T03:10:19.480Z,1002.60
2023-01-12T03:11:19.459Z,1002.59
2023-01-12T03:12:19.422Z,1002.56
2023-01-12T03:13:19.405Z,1002.57
2023-01-12T03:14:19.373Z,1002.50
2023-01-12T03:15:19.345Z,1002.54
2023-01-12T03:16:19.438Z,1002.47
2023-01-12T03:17:19.295Z,1002.40
2023-01-12T03:18:19.266Z,1002.46
2023-01-12T03:19:19.247Z,1002.42
2023-01-12T03:20:19.239Z,1002.41
2023-01-12T03:21:19.199Z,1002.41
2023-01-12T03:22:19.163Z,1002.41
2023-01-12T03:23:19.142Z,1002.37
2023-01-12T03:24:19.129Z,1002.30
2023-01-12T03:25:19.093Z,1002.35
2023-01-12T03:26:19.065Z,1002.38
2023-01-12T03:27:19.037Z,1002.36
2023-01-12T03:28:19.016Z,1002.30
2023-01-12T03:29:18.984Z,1002.38
2023-01-12T03:30:18.955Z,1002.34
2023-01-12T03:31:18.959Z,1002.32
2023-01-12T03:32:18.902Z,1002.35
2023-01-12T03:33:18.878Z,1002.34
2023-01-12T03:34:18.851Z,1002.30
2023-01-12T03:35:18.838Z,1002.24
2023-01-12T03:36:18.825Z,1002.28
2023-01-12T03:37:18.785Z,1002.21
2023-01-12T03:38:18.750Z,1002.21
2023-01-12T03:39:18.732Z,1002.24
2023-01-12T03:40:18.693Z,1002.11
2023-01-12T03:41:18.669Z,1002.15
2023-01-12T03:42:18.638Z,1002.12
2023-01-12T03:43:18.616Z,1002.08
2023-01-12T03:44:18.593Z,1002.02
2023-01-12T03:45:18.585Z,1002.02
2023-01-12T03:46:18.538Z,1001.85
2023-01-12T03:47:18.519Z,1001.97
2023-01-12T03:48:18.482Z,1001.93
2023-01-12T03:49:18.464Z,1001.93
2023-01-12T03:50:18.435Z,1001.97
2023-01-12T03:51:18.423Z,1001.97
2023-01-12T03:52:18.399Z,1001.97
2023-01-12T03:53:18.360Z,1002.02
2023-01-12T03:54:18.343Z,1001.99
2023-01-12T03:55:18.307Z,1002.03
2023-01-12T03:56:18.273Z,1002.05
2023-01-12T03:57:18.254Z,1001.97
2023-01-12T03:58:18.226Z,1002.01
2023-01-12T03:59:18.204Z,1001.82
2023-01-12T04:00:18.177Z,1001.91
2023-01-12T04:01:18.291Z,1001.98
2023-01-12T04:02:18.117Z,1001.88
2023-01-12T04:03:18.227Z,1001.77
2023-01-12T04:04:18.068Z,1001.82
2023-01-12T04:05:18.049Z,1001.77
2023-01-12T04:06:18.023Z,1001.75
2023-01-12T04:07:18.001Z,1001.78
2023-01-12T04:08:17.987Z,1001.77
2023-01-12T04:09:17.945Z,1001.89
2023-01-12T04:10:17.920Z,1001.88
2023-01-12T04:11:17.896Z,1001.82
2023-01-12T04:12:17.862Z,1001.81
2023-01-12T04:13:17.836Z,1001.83
2023-01-12T04:14:17.810Z,1001.80
2023-01-12T04:15:17.790Z,1001.81
2023-01-12T04:16:17.828Z,1001.73
2023-01-12T04:17:17.736Z,1001.75
2023-01-12T04:18:17.700Z,1001.74
2023-01-12T04:19:17.683Z,1001.73
2023-01-12T04:20:17.659Z,1001.73
2023-01-12T04:21:17.626Z,1001.79
2023-01-12T04:22:17.617Z,1001.66
2023-01-12T04:23:17.579Z,1001.68
2023-01-12T04:24:17.575Z,1001.59
2023-01-12T04:25:17.858Z,1001.68
2023-01-12T04:26:17.500Z,1001.62
2023-01-12T04:27:17.490Z,1001.57
2023-01-12T04:28:17.449Z,1001.57
2023-01-12T04:29:17.424Z,1001.50
2023-01-12T04:30:17.397Z,1001.54
2023-01-12T04:31:17.409Z,1001.49
2023-01-12T04:32:17.337Z,1001.44
2023-01-12T04:33:17.318Z,1001.44
2023-01-12T04:34:17.310Z,1001.45
2023-01-12T04:35:17.363Z,1001.43
2023-01-12T04:36:17.234Z,1001.44
2023-01-12T04:37:17.209Z,1001.39
2023-01-12T04:38:17.183Z,1001.33
2023-01-12T04:39:17.160Z,1001.35
2023-01-12T04:40:17.167Z,1001.28
2023-01-12T04:41:17.108Z,1001.32
2023-01-12T04:42:17.076Z,1001.24
2023-01-12T04:43:17.055Z,1001.30
2023-01-12T04:44:17.026Z,1001.20
2023-01-12T04:45:17.008Z,1001.20
2023-01-12T04:46:17.043Z,1001.22
2023-01-12T04:47:16.953Z,1001.07
2023-01-12T04:48:16.921Z,1001.31
2023-01-12T04:49:16.922Z,1001.27
2023-01-12T04:50:16.872Z,1001.24
2023-01-12T04:51:16.851Z,1001.19
2023-01-12T04:52:16.819Z,1001.19
2023-01-12T04:53:16.822Z,1001.11
2023-01-12T04:54:16.767Z,1001.22
2023-01-12T04:55:16.749Z,1001.13
2023-01-12T04:56:16.745Z,1001.03
2023-01-12T04:57:16.691Z,1001.01
2023-01-12T04:58:16.665Z,1000.92
2023-01-12T04:59:16.641Z,1001.04
2023-01-12T05:00:16.613Z,1000.85
2023-01-12T05:01:16.690Z,1000.95
2023-01-12T05:02:16.635Z,1000.84
2023-01-12T05:03:16.542Z,1000.82
2023-01-12T05:04:16.607Z,1000.83
2023-01-12T05:05:16.482Z,1000.70
2023-01-12T05:06:16.452Z,1000.72
2023-01-12T05:07:16.434Z,1000.74
2023-01-12T05:08:16.399Z,1000.65
2023-01-12T05:09:18.498Z,1000.66
2023-01-12T05:10:16.353Z,1000.70
2023-01-12T05:11:16.342Z,1000.71
2023-01-12T05:12:16.324Z,1000.68
2023-01-12T05:13:16.287Z,1000.67
2023-01-12T05:14:16.253Z,1000.54
2023-01-12T05:15:16.236Z,1000.70
2023-01-12T05:16:16.270Z,1000.72
2023-01-12T05:17:16.170Z,1000.68
2023-01-12T05:18:16.143Z,1000.75
2023-01-12T05:19:16.120Z,1000.68
2023-01-12T05:20:16.088Z,1000.67
2023-01-12T05:21:16.068Z,1000.65
2023-01-12T05:22:16.037Z,1000.60
2023-01-12T05:23:16.025Z,1000.64
2023-01-12T05:24:15.984Z,1000.58
2023-01-12T05:25:15.958Z,1000.52
2023-01-12T05:26:15.932Z,1000.61
2023-01-12T05:27:15.916Z,1000.66
2023-01-12T05:28:15.899Z,1000.55
2023-01-12T05:29:15.860Z,1000.57
2023-01-12T05:30:15.827Z,1000.50
2023-01-12T05:31:15.863Z,1000.53
2023-01-12T05:32:15.773Z,1000.58
2023-01-12T05:33:15.762Z,1000.45
2023-01-12T05:34:15.718Z,1000.43
2023-01-12T05:35:15.697Z,1000.31
2023-01-12T05:36:15.689Z,1000.15
2023-01-12T05:37:15.647Z,1000.36
2023-01-12T05:38:15.615Z,1000.31
2023-01-12T05:39:15.595Z,1000.36
2023-01-12T05:40:15.572Z,1000.32
2023-01-12T05:41:15.549Z,1000.25
2023-01-12T05:42:15.515Z,1000.22
2023-01-12T05:43:15.490Z,1000.26
2023-01-12T05:44:15.487Z,1000.19
2023-01-12T05:45:15.440Z,1000.13
2023-01-12T05:46:15.422Z,1000.10
2023-01-12T05:47:15.391Z,1000.02
2023-01-12T05:48:15.370Z,1000.09
2023-01-12T05:49:15.336Z,1000.00
2023-01-12T05:50:15.303Z,999.96
2023-01-12T05:51:15.283Z,999.98
2023-01-12T05:52:15.253Z,1000.07
2023-01-12T05:53:15.229Z,999.96
2023-01-12T05:54:15.198Z,999.92
2023-01-12T05:55:15.178Z,999.98
2023-01-12T05:56:15.145Z,999.95
2023-01-12T05:57:15.126Z,999.87
2023-01-12T05:58:15.126Z,999.82
2023-01-12T05:59:15.070Z,999.74
2023-01-12T06:00:15.153Z,999.81
2023-01-12T06:01:15.062Z,999.83
2023-01-12T06:02:15.091Z,999.78
2023-01-12T06:03:14.972Z,999.84
2023-01-12T06:04:14.980Z,999.84
2023-01-12T06:05:14.916Z,999.87
2023-01-12T06:06:14.884Z,999.72
2023-01-12T06:07:14.862Z,999.68
2023-01-12T06:08:14.838Z,999.62
2023-01-12T06:09:14.809Z,999.65
2023-01-12T06:10:14.787Z,999.60
2023-01-12T06:11:14.759Z,999.63
2023-01-12T06:12:14.730Z,999.55
2023-01-12T06:13:14.701Z,999.54
2023-01-12T06:14:14.675Z,999.50
2023-01-12T06:15:14.655Z,999.57
2023-01-12T06:16:14.748Z,999.48
2023-01-12T06:17:14.611Z,999.35
2023-01-12T06:18:14.571Z,999.28
2023-01-12T06:19:14.564Z,999.44
2023-01-12T06:20:14.518Z,999.46
2023-01-12T06:21:14.493Z,999.33
2023-01-12T06:22:14.475Z,999.40
2023-01-12T06:23:14.438Z,999.44
2023-01-12T06:24:14.441Z,999.31
2023-01-12T06:25:14.393Z,999.40
2023-01-12T06:26:14.366Z,999.49
2023-01-12T06:27:14.352Z,999.39
2023-01-12T06:28:14.315Z,999.41
2023-01-12T06:29:14.287Z,999.38
2023-01-12T06:30:14.256Z,999.43
2023-01-12T06:31:14.328Z,999.27
2023-01-12T06:32:14.229Z,999.34
2023-01-12T06:33:14.201Z,999.20
2023-01-12T06:34:14.160Z,999.30
2023-01-12T06:35:19.459Z,999.10
2023-01-12T06:36:14.102Z,998.99
2023-01-12T06:37:14.075Z,999.15
2023-01-12T06:38:14.051Z,999.34
2023-01-12T06:39:14.023Z,999.12
2023-01-12T06:40:13.996Z,999.13
2023-01-12T06:41:13.982Z,999.19
2023-01-12T06:42:13.942Z,999.09
2023-01-12T06:43:13.927Z,999.08
2023-01-12T06:44:13.903Z,998.94
2023-01-12T06:45:13.899Z,999.02
2023-01-12T06:46:13.891Z,998.83
2023-01-12T06:47:13.813Z,999.06
2023-01-12T06:48:13.805Z,999.06
2023-01-12T06:49:13.783Z,999.13
2023-01-12T06:50:13.735Z,999.02
2023-01-12T06:51:13.714Z,999.26
2023-01-12T06:52:13.682Z,999.18
2023-01-12T06:53:13.664Z,999.23
2023-01-12T06:54:13.629Z,999.12
2023-01-12T06:55:13.604Z,999.08
2023-01-12T06:56:13.576Z,999.11
2023-01-12T06:57:13.554Z,999.12
2023-01-12T06:58:13.523Z,999.02
2023-01-12T06:59:13.500Z,999.03
2023-01-12T07:00:13.465Z,998.99
2023-01-12T07:01:13.621Z,999.04
2023-01-12T07:02:13.509Z,999.02
2023-01-12T07:03:13.395Z,998.85
2023-01-12T07:04:13.437Z,998.92
2023-01-12T07:05:13.349Z,998.88
2023-01-12T07:06:13.315Z,998.81
2023-01-12T07:07:13.304Z,998.83
2023-01-12T07:08:13.264Z,998.81
2023-01-12T07:09:13.239Z,998.91
2023-01-12T07:10:13.207Z,998.69
2023-01-12T07:11:13.185Z,998.73
2023-01-12T07:12:13.157Z,998.72
2023-01-12T07:13:13.140Z,998.73
2023-01-12T07:14:13.107Z,998.64
2023-01-12T07:15:13.096Z,998.55
2023-01-12T07:16:13.117Z,998.71
2023-01-12T07:17:13.027Z,998.69
2023-01-12T07:18:12.999Z,998.65
2023-01-12T07:19:12.986Z,998.56
2023-01-12T07:20:12.972Z,998.64
2023-01-12T07:21:12.931Z,998.62
2023-01-12T07:22:12.918Z,998.42
2023-01-12T07:23:12.878Z,998.57
2023-01-12T07:24:12.843Z,998.54
2023-01-12T07:25:12.817Z,998.58
2023-01-12T07:26:12.796Z,998.54
2023-01-12T07:27:12.767Z,998.60
2023-01-12T07:28:12.748Z,998.62
2023-01-12T07:29:12.713Z,998.56
2023-01-12T07:30:12.686Z,998.53
2023-01-12T07:31:12.771Z,998.61
2023-01-12T07:32:12.631Z,998.59
2023-01-12T07:33:12.616Z,998.64
2023-01-12T07:34:12.594Z,998.58
2023-01-12T07:35:12.559Z,998.71
2023-01-12T07:36:12.574Z,998.70
2023-01-12T07:37:12.544Z,998.66
2023-01-12T07:38:12.482Z,998.76
2023-01-12T07:39:12.451Z,998.84
2023-01-12T07:40:12.441Z,998.86
2023-01-12T07:41:12.402Z,998.82
2023-01-12T07:42:12.384Z,998.78
2023-01-12T07:43:12.347Z,998.85
2023-01-12T07:44:12.325Z,998.85
2023-01-12T07:45:12.306Z,998.77
2023-01-12T07:46:12.329Z,998.74
2023-01-12T07:47:12.264Z,998.57
2023-01-12T07:48:12.223Z,998.50
2023-01-12T07:49:12.190Z,998.35
2023-01-12T07:50:13.135Z,998.35
2023-01-12T07:51:12.143Z,998.58
2023-01-12T07:52:12.156Z,998.84
2023-01-12T07:53:12.086Z,998.86
2023-01-12T07:54:12.076Z,998.89
2023-01-12T07:55:12.037Z,998.78
2023-01-12T07:56:12.014Z,998.80
2023-01-12T07:57:11.995Z,998.77
2023-01-12T07:58:11.968Z,998.76
2023-01-12T07:59:11.931Z,998.67
2023-01-12T08:00:11.911Z,998.69
2023-01-12T08:01:11.905Z,998.70
2023-01-12T08:02:11.896Z,998.57
2023-01-12T08:03:11.834Z,998.65
2023-01-12T08:04:11.807Z,998.75
2023-01-12T08:05:11.826Z,998.81
2023-01-12T08:06:11.764Z,998.81
2023-01-12T08:07:11.723Z,998.84
2023-01-12T08:08:11.718Z,998.90
2023-01-12T08:09:11.674Z,998.84
2023-01-12T08:10:11.643Z,998.89
2023-01-12T08:11:11.635Z,998.87
2023-01-12T08:12:11.606Z,998.92
2023-01-12T08:13:11.560Z,998.96
2023-01-12T08:14:11.545Z,998.82
2023-01-12T08:15:11.533Z,998.98
2023-01-12T08:16:11.511Z,998.96
2023-01-12T08:17:11.458Z,998.85
2023-01-12T08:18:11.439Z,998.84
2023-01-12T08:19:11.419Z,998.81
2023-01-12T08:20:11.385Z,998.85
2023-01-12T08:21:11.357Z,998.82
2023-01-12T08:22:11.331Z,998.84
2023-01-12T08:23:11.640Z,998.78
2023-01-12T08:24:11.302Z,998.79
2023-01-12T08:25:11.259Z,998.78
2023-01-12T08:26:11.227Z,998.81
2023-01-12T08:27:11.206Z,998.78
2023-01-12T08:28:11.187Z,998.66
2023-01-12T08:29:12.989Z,998.84
2023-01-12T08:30:11.131Z,998.84
2023-01-12T08:31:11.223Z,998.91
2023-01-12T08:32:11.077Z,998.95
2023-01-12T08:33:11.046Z,998.83
2023-01-12T08:34:11.028Z,998.90
2023-01-12T08:35:10.996Z,998.85
2023-01-12T08:37:10.936Z,998.91
2023-01-12T08:38:10.941Z,998.88
2023-01-12T08:39:10.892Z,998.88
2023-01-12T08:40:10.891Z,998.92
2023-01-12T08:41:10.837Z,998.98
2023-01-12T08:42:10.815Z,998.91
2023-01-12T08:43:10.787Z,998.88
2023-01-12T08:44:10.760Z,998.97
2023-01-12T08:45:10.729Z,999.00
2023-01-12T08:46:10.712Z,999.00
2023-01-12T08:47:10.681Z,998.94
2023-01-12T08:48:10.665Z,998.98
2023-01-12T08:49:10.648Z,999.02
2023-01-12T08:50:10.601Z,998.87
2023-01-12T08:51:10.577Z,998.93
2023-01-12T08:52:10.549Z,999.03
2023-01-12T08:53:10.528Z,999.00
2023-01-12T08:54:10.528Z,999.03
2023-01-12T08:55:10.478Z,998.98
2023-01-12T08:56:10.478Z,998.92
2023-01-12T08:57:10.417Z,999.06
2023-01-12T08:58:10.399Z,999.00
2023-01-12T08:59:10.369Z,998.95
2023-01-12T09:00:10.354Z,999.02
2023-01-12T09:01:10.491Z,999.04
2023-01-12T09:02:10.420Z,998.98
2023-01-12T09:03:10.269Z,999.08
2023-01-12T09:04:10.247Z,999.04
2023-01-12T09:05:10.218Z,999.01
2023-01-12T09:06:10.193Z,999.04
2023-01-12T09:07:10.171Z,998.94
2023-01-12T09:08:10.139Z,999.10
2023-01-12T09:09:10.110Z,998.98
2023-01-12T09:10:10.104Z,999.04
2023-01-12T09:11:10.070Z,999.08
2023-01-12T09:12:10.083Z,999.07
2023-01-12T09:13:10.044Z,999.01
2023-01-12T09:14:09.984Z,999.10
2023-01-12T09:15:09.968Z,999.15
2023-01-12T09:16:13.528Z,999.23
2023-01-12T09:17:09.912Z,999.13
2023-01-12T09:18:09.886Z,999.13
2023-01-12T09:19:09.861Z,999.26
2023-01-12T09:20:09.846Z,999.22
2023-01-12T09:21:09.818Z,999.30
2023-01-12T09:22:09.781Z,999.34
2023-01-12T09:23:09.752Z,999.33
2023-01-12T09:24:09.731Z,999.38
2023-01-12T09:25:09.694Z,999.39
2023-01-12T09:26:09.688Z,999.31
2023-01-12T09:27:09.642Z,999.39
2023-01-12T09:28:09.660Z,999.41
2023-01-12T09:29:09.600Z,999.42
2023-01-12T09:30:09.575Z,999.39
2023-01-12T09:31:09.549Z,999.42
2023-01-12T09:32:09.526Z,999.24
2023-01-12T09:33:09.501Z,999.47
2023-01-12T09:34:09.474Z,999.40
2023-01-12T09:38:33.318Z,999.53
2023-01-12T09:53:49.440Z,999.69
2023-01-12T09:54:49.390Z,999.64
2023-01-12T09:55:49.361Z,999.66
2023-01-12T10:00:01.859Z,999.61
2023-01-12T10:07:01.713Z,999.65
2023-01-12T10:08:01.649Z,999.59
2023-01-12T10:09:01.661Z,999.66
2023-01-12T10:12:01.567Z,999.74
2023-01-12T10:20:27.174Z,999.76
2023-01-12T12:36:23.739Z,999.50
2023-01-12T12:42:23.563Z,999.56
2023-01-12T12:43:23.542Z,999.49
2023-01-12T12:44:23.511Z,999.55
2023-01-12T12:45:23.488Z,999.57
2023-01-12T12:46:23.490Z,999.56
2023-01-12T12:47:23.437Z,999.60
2023-01-12T12:48:23.401Z,999.61
2023-01-12T12:49:23.395Z,999.59
2023-01-12T12:50:23.365Z,999.53
2023-01-12T12:51:23.331Z,999.51
2023-01-12T12:52:23.336Z,999.50
2023-01-12T12:53:23.303Z,999.52
2023-01-12T12:54:23.270Z,999.61
2023-01-12T12:55:23.234Z,999.50
2023-01-12T12:56:23.212Z,999.69
2023-01-12T12:57:23.175Z,999.53
2023-01-12T12:58:23.155Z,999.55
2023-01-12T12:59:23.133Z,999.47
2023-01-12T13:00:23.107Z,999.54
2023-01-12T13:01:23.255Z,999.46
2023-01-12T13:02:23.180Z,999.49
2023-01-12T13:03:23.027Z,999.44
2023-01-12T13:04:23.009Z,999.46
2023-01-12T13:05:22.982Z,999.39
2023-01-12T13:06:22.961Z,999.42
2023-01-12T13:07:22.929Z,999.34
2023-01-12T13:08:22.931Z,999.47
2023-01-12T13:09:22.911Z,999.37
2023-01-12T13:10:22.867Z,999.45
2023-01-12T13:11:22.832Z,999.43
2023-01-12T13:12:22.803Z,999.44
2023-01-12T13:13:22.780Z,999.43
2023-01-12T13:14:22.756Z,999.44
2023-01-12T13:15:22.727Z,999.46
2023-01-12T13:16:22.772Z,999.41
2023-01-12T13:17:22.696Z,999.49
2023-01-12T13:18:22.654Z,999.44
2023-01-12T13:19:22.621Z,999.39
2023-01-12T13:20:26.108Z,999.34
2023-01-12T13:21:22.582Z,999.45
2023-01-12T13:22:22.550Z,999.38
2023-01-12T13:23:22.531Z,999.48
2023-01-12T13:24:22.522Z,999.37
2023-01-12T13:25:22.476Z,999.42
2023-01-12T13:26:22.588Z,999.40
2023-01-12T13:27:22.428Z,999.43
2023-01-12T13:28:22.399Z,999.36
2023-01-12T13:29:22.381Z,999.40
2023-01-12T13:30:22.354Z,999.34
2023-01-12T13:31:22.368Z,999.41
2023-01-12T13:32:22.294Z,999.41
2023-01-12T13:33:22.278Z,999.39
2023-01-12T13:34:22.243Z,999.42
2023-01-12T13:35:22.231Z,999.32
2023-01-12T13:36:22.194Z,999.40
2023-01-12T13:37:22.170Z,999.35
2023-01-12T13:38:22.143Z,999.44
2023-01-12T13:39:22.118Z,999.42
2023-01-12T13:40:22.109Z,999.40
2023-01-12T13:41:22.070Z,999.45
2023-01-12T13:42:22.053Z,999.35
2023-01-12T13:43:22.028Z,999.41
2023-01-12T13:44:22.009Z,999.37
2023-01-12T13:45:21.965Z,999.36
2023-01-12T13:46:22.021Z,999.37
2023-01-12T13:47:21.920Z,999.41
2023-01-12T13:48:21.904Z,999.33
2023-01-12T13:49:21.859Z,999.39
2023-01-12T13:50:21.834Z,999.39
2023-01-12T13:51:21.825Z,999.38
2023-01-12T13:52:21.801Z,999.37
2023-01-12T13:53:21.766Z,999.41
2023-01-12T13:54:21.734Z,999.38
2023-01-12T13:55:21.721Z,999.30
2023-01-12T13:56:21.720Z,999.42
2023-01-12T13:57:21.663Z,999.43
2023-01-12T13:58:21.650Z,999.46
2023-01-12T13:59:21.625Z,999.39
2023-01-12T14:00:21.613Z,999.44
2023-01-12T14:01:21.709Z,999.43
2023-01-12T14:02:21.703Z,999.45
2023-01-12T14:03:21.516Z,999.40
2023-01-12T14:04:21.495Z,999.39
2023-01-12T14:05:21.464Z,999.46
2023-01-12T14:06:21.431Z,999.41
2023-01-12T14:07:21.413Z,999.36
2023-01-12T14:08:21.391Z,999.44
2023-01-12T14:09:21.363Z,999.46
2023-01-12T14:10:21.329Z,999.46
2023-01-12T14:11:21.351Z,999.39
2023-01-12T14:12:21.320Z,999.42
2023-01-12T14:13:21.263Z,999.46
2023-01-12T14:14:21.233Z,999.47
2023-01-12T14:15:21.211Z,999.41
2023-01-12T14:16:21.248Z,999.36
2023-01-12T14:17:21.185Z,999.38
2023-01-12T14:18:21.135Z,999.42
2023-01-12T14:19:21.112Z,999.45
2023-01-12T14:20:21.085Z,999.47
2023-01-12T14:21:21.061Z,999.51
2023-01-12T14:22:21.036Z,999.39
2023-01-12T14:23:21.017Z,999.41
2023-01-12T14:24:20.990Z,999.28
2023-01-12T14:25:20.984Z,999.39
2023-01-12T14:26:20.931Z,999.45
2023-01-12T14:27:20.951Z,999.42
2023-01-12T14:28:20.910Z,999.41
2023-01-12T14:29:20.854Z,999.46
2023-01-12T14:30:20.828Z,999.43
2023-01-12T14:31:20.901Z,999.36
2023-01-12T14:32:20.775Z,999.37
2023-01-12T14:33:20.762Z,999.40
2023-01-12T14:34:20.724Z,999.37
2023-01-12T14:35:20.703Z,999.35
2023-01-12T14:36:20.678Z,999.25
2023-01-12T14:37:20.661Z,999.31
2023-01-12T14:38:20.635Z,999.32
2023-01-12T14:39:20.600Z,999.38
2023-01-12T14:40:20.581Z,999.33
2023-01-12T14:41:20.554Z,999.30
2023-01-12T14:42:20.532Z,999.39
2023-01-12T14:43:20.537Z,999.32
2023-01-12T14:44:20.502Z,999.34
2023-01-12T14:45:20.463Z,999.40
2023-01-12T14:46:20.446Z,999.35
2023-01-12T14:47:20.404Z,999.34
2023-01-12T14:48:20.392Z,999.39
2023-01-12T14:49:20.362Z,999.31
2023-01-12T14:50:20.327Z,999.27
2023-01-12T14:51:20.301Z,999.30
2023-01-12T14:52:20.273Z,999.27
2023-01-12T14:53:20.257Z,999.33
2023-01-12T14:54:20.228Z,999.32
2023-01-12T14:55:20.196Z,999.34
2023-01-12T14:56:20.176Z,999.30
2023-01-12T14:57:20.151Z,999.31
2023-01-12T14:58:20.130Z,999.19
2023-01-12T14:59:20.094Z,999.25
2023-01-12T15:00:20.107Z,999.31
2023-01-12T15:01:20.158Z,999.22
2023-01-12T15:02:20.027Z,999.34
2023-01-12T15:03:21.285Z,999.30
2023-01-12T15:04:20.000Z,999.24
2023-01-12T15:05:19.955Z,999.27
2023-01-12T15:06:19.926Z,999.31
2023-01-12T15:07:19.901Z,999.21
2023-01-12T15:08:19.872Z,999.25
2023-01-12T15:09:19.839Z,999.19
2023-01-12T15:10:19.824Z,999.26
2023-01-12T15:11:19.787Z,999.25
2023-01-12T15:12:19.772Z,999.20
2023-01-12T15:13:19.742Z,999.17
2023-01-12T15:14:19.718Z,999.25